Latest Weather Observations for Melville Water

IDW60801

Issued at 12:33 pm WST Saturday 27 August 2016 (issued every 30 minutes, with the page automatically refreshed every 10 minutes)

About weather observations | Map of weather stations | Latest weather observations for WA | Other Formats
Station Details ID: 009091 Name: INNER DOLPHIN PYLON Lat: -31.99 Lon: 115.83 Height: 0.0 m
Data from the previous 72 hours. | See also: Recent months at Melville Water
Date/Time
WST
Temp
°C
App
Temp
°C
Dew
Point
°C
Rel
Hum
%
Delta-T
°C
Wind Press
QNH
hPa
Press
MSL
hPa
Rain since
9am
mm
Dir  Spd
km/h
Gust
km/h
Spd
kts
Gust
kts
27/12:30pm - - - - - WSW 35 50 19 27 - - -
27/12:00pm - - - - - WSW 37 48 20 26 - - -
27/11:30am - - - - - WSW 39 48 21 26 - - -
27/11:06am - - - - - WNW 37 50 20 27 - - -
27/11:00am - - - - - WNW 32 50 17 27 - - -
27/10:58am - - - - - WNW 32 50 17 27 - - -
27/10:30am - - - - - WNW 26 39 14 21 - - -
27/10:16am - - - - - NW 28 46 15 25 - - -
27/10:00am - - - - - WNW 26 39 14 21 - - -
27/09:30am - - - - - WNW 28 50 15 27 - - -
27/09:14am - - - - - W 28 44 15 24 - - -
27/09:00am - - - - - WNW 24 35 13 19 - - -
27/08:30am - - - - - NW 24 39 13 21 - - -
27/08:00am - - - - - NW 24 35 13 19 - - -
27/07:30am - - - - - NW 19 28 10 15 - - -
27/07:00am - - - - - WNW 19 28 10 15 - - -
27/06:30am - - - - - WNW 15 22 8 12 - - -
27/06:00am - - - - - N 11 17 6 9 - - -
27/05:30am - - - - - NNW 19 28 10 15 - - -
27/05:00am - - - - - N 13 15 7 8 - - -
27/04:30am - - - - - N 19 22 10 12 - - -
27/04:00am - - - - - NNW 20 26 11 14 - - -
27/03:30am - - - - - NW 22 30 12 16 - - -
27/03:00am - - - - - WNW 19 32 10 17 - - -
27/02:30am - - - - - NW 9 17 5 9 - - -
27/02:00am - - - - - W 7 11 4 6 - - -
27/01:30am - - - - - W 13 19 7 10 - - -
27/01:00am - - - - - W 17 26 9 14 - - -
27/12:30am - - - - - W 13 19 7 10 - - -
27/12:00am - - - - - W 15 19 8 10 - - -
 
Date/Time
WST
Temp
°C
App
Temp
°C
Dew
Point
°C
Rel
Hum
%
Delta-T
°C
Wind Press
QNH
hPa
Press
MSL
hPa
Rain since
9am
mm
Dir  Spd
km/h
Gust
km/h
Spd
kts
Gust
kts
26/11:30pm - - - - - WSW 19 33 10 18 - - -
26/11:00pm - - - - - WSW 19 28 10 15 - - -
26/10:30pm - - - - - WSW 17 22 9 12 - - -
26/10:00pm - - - - - WSW 30 37 16 20 - - -
26/09:30pm - - - - - WSW 32 39 17 21 - - -
26/09:00pm - - - - - WSW 32 46 17 25 - - -
26/08:30pm - - - - - N 33 52 18 28 - - -
26/08:00pm - - - - - N 33 52 18 28 - - -
26/07:51pm - - - - - N 32 52 17 28 - - -
26/07:30pm - - - - - N 28 37 15 20 - - -
26/07:00pm - - - - - N 28 41 15 22 - - -
26/06:30pm - - - - - N 28 39 15 21 - - -
26/06:05pm - - - - - NW 28 46 15 25 - - -
26/06:00pm - - - - - NW 28 43 15 23 - - -
26/05:43pm - - - - - NNW 35 56 19 30 - - -
26/05:30pm - - - - - N 30 44 16 24 - - -
26/05:00pm - - - - - N 28 41 15 22 - - -
26/04:30pm - - - - - NNW 30 43 16 23 - - -
26/04:14pm - - - - - NNW 35 54 19 29 - - -
26/04:00pm - - - - - NNW 35 52 19 28 - - -
26/03:52pm - - - - - NNW 35 54 19 29 - - -
26/03:30pm - - - - - NNW 30 44 16 24 - - -
26/03:18pm - - - - - NNW 28 46 15 25 - - -
26/03:00pm - - - - - N 22 32 12 17 - - -
26/02:30pm - - - - - N 22 33 12 18 - - -
26/02:00pm - - - - - NNE 22 33 12 18 - - -
26/01:30pm - - - - - N 24 33 13 18 - - -
26/01:00pm - - - - - NNE 22 30 12 16 - - -
26/12:30pm - - - - - NNE 24 32 13 17 - - -
26/12:00pm - - - - - NNE 24 33 13 18 - - -
26/11:30am - - - - - NNE 28 37 15 20 - - -
26/11:00am - - - - - NNE 28 37 15 20 - - -
26/10:30am - - - - - NNE 28 39 15 21 - - -
26/10:00am - - - - - NNE 26 35 14 19 - - -
26/09:30am - - - - - NNE 26 32 14 17 - - -
26/09:00am - - - - - NNE 24 33 13 18 - - -
26/08:30am - - - - - NNE 26 35 14 19 - - -
26/08:00am - - - - - NNE 28 35 15 19 - - -
26/07:30am - - - - - NE 28 43 15 23 - - -
26/07:00am - - - - - NE 24 33 13 18 - - -
26/06:30am - - - - - NE 24 32 13 17 - - -
26/06:00am - - - - - NE 24 32 13 17 - - -
26/05:30am - - - - - NE 26 32 14 17 - - -
26/05:00am - - - - - NE 26 35 14 19 - - -
26/04:30am - - - - - NE 26 33 14 18 - - -
26/04:00am - - - - - NE 28 33 15 18 - - -
26/03:30am - - - - - NE 26 33 14 18 - - -
26/03:00am - - - - - NE 30 41 16 22 - - -
26/02:30am - - - - - NE 30 41 16 22 - - -
26/02:00am - - - - - NE 28 41 15 22 - - -
26/01:30am - - - - - ENE 22 30 12 16 - - -
26/01:00am - - - - - ENE 19 24 10 13 - - -
26/12:30am - - - - - ENE 17 22 9 12 - - -
26/12:00am - - - - - ENE 13 19 7 10 - - -
 
Date/Time
WST
Temp
°C
App
Temp
°C
Dew
Point
°C
Rel
Hum
%
Delta-T
°C
Wind Press
QNH
hPa
Press
MSL
hPa
Rain since
9am
mm
Dir  Spd
km/h
Gust
km/h
Spd
kts
Gust
kts
25/11:30pm - - - - - ENE 17 19 9 10 - - -
25/11:00pm - - - - - ENE 15 20 8 11 - - -
25/10:30pm - - - - - ENE 11 13 6 7 - - -
25/10:00pm - - - - - ENE 19 24 10 13 - - -
25/09:30pm - - - - - ENE 15 20 8 11 - - -
25/09:00pm - - - - - ENE 17 20 9 11 - - -
25/08:30pm - - - - - ENE 13 20 7 11 - - -
25/08:00pm - - - - - ENE 13 17 7 9 - - -
25/07:30pm - - - - - E 13 17 7 9 - - -
25/07:00pm - - - - - E 17 26 9 14 - - -
25/06:30pm - - - - - E 17 20 9 11 - - -
25/06:00pm - - - - - E 22 30 12 16 - - -
25/05:30pm - - - - - ENE 24 33 13 18 - - -
25/05:00pm - - - - - ENE 20 28 11 15 - - -
25/04:30pm - - - - - ENE 19 24 10 13 - - -
25/04:00pm - - - - - ENE 22 30 12 16 - - -
25/03:30pm - - - - - ENE 22 28 12 15 - - -
25/03:00pm - - - - - ENE 20 35 11 19 - - -
25/02:30pm - - - - - ENE 22 30 12 16 - - -
25/02:00pm - - - - - ENE 22 30 12 16 - - -
25/01:30pm - - - - - ENE 20 30 11 16 - - -
25/01:00pm - - - - - ENE 20 26 11 14 - - -
25/12:30pm - - - - - ENE 17 20 9 11 - - -
25/12:00pm - - - - - NE 20 28 11 15 - - -
25/11:30am - - - - - ENE 20 26 11 14 - - -
25/11:00am - - - - - ENE 26 33 14 18 - - -
25/10:30am - - - - - ENE 24 33 13 18 - - -
25/10:00am - - - - - ENE 28 37 15 20 - - -
25/09:30am - - - - - ENE 28 37 15 20 - - -
25/09:00am - - - - - ENE 26 32 14 17 - - -
25/08:30am - - - - - ENE 28 39 15 21 - - -
25/08:00am - - - - - ENE 28 37 15 20 - - -
25/07:30am - - - - - ENE 32 39 17 21 - - -
25/07:00am - - - - - ENE 30 44 16 24 - - -
25/06:30am - - - - - ENE 24 32 13 17 - - -
25/06:00am - - - - - ENE 20 26 11 14 - - -
25/05:30am - - - - - ENE 20 26 11 14 - - -
25/05:00am - - - - - ENE 19 26 10 14 - - -
25/04:30am - - - - - E 20 28 11 15 - - -
25/04:00am - - - - - ENE 19 26 10 14 - - -
25/03:30am - - - - - ENE 20 26 11 14 - - -
25/03:00am - - - - - ENE 20 26 11 14 - - -
25/02:30am - - - - - ENE 17 24 9 13 - - -
25/02:00am - - - - - E 15 20 8 11 - - -
25/01:30am - - - - - E 11 17 6 9 - - -
25/01:00am - - - - - ESE 11 13 6 7 - - -
25/12:30am - - - - - ESE 13 15 7 8 - - -
25/12:00am - - - - - ESE 13 17 7 9 - - -
 
Date/Time
WST
Temp
°C
App
Temp
°C
Dew
Point
°C
Rel
Hum
%
Delta-T
°C
Wind Press
QNH
hPa
Press
MSL
hPa
Rain since
9am
mm
Dir  Spd
km/h
Gust
km/h
Spd
kts
Gust
kts
24/11:30pm - - - - - ESE 13 17 7 9 - - -
24/11:00pm - - - - - SE 11 15 6 8 - - -
24/10:30pm - - - - - SE 13 17 7 9 - - -
24/10:00pm - - - - - ESE 11 13 6 7 - - -
24/09:30pm - - - - - ESE 11 11 6 6 - - -
24/09:00pm - - - - - ESE 13 15 7 8 - - -
24/08:30pm - - - - - ESE 13 17 7 9 - - -
24/08:00pm - - - - - ESE 13 19 7 10 - - -
24/07:30pm - - - - - ESE 15 17 8 9 - - -
24/07:00pm - - - - - ESE 13 15 7 8 - - -
24/06:30pm - - - - - ESE 17 19 9 10 - - -
24/06:00pm - - - - - ESE 20 24 11 13 - - -
24/05:30pm - - - - - ESE 20 26 11 14 - - -
24/05:00pm - - - - - E 20 28 11 15 - - -
24/04:30pm - - - - - ESE 17 32 9 17 - - -
24/04:00pm - - - - - E 17 32 9 17 - - -
24/03:30pm - - - - - ESE 17 26 9 14 - - -
24/03:00pm - - - - - ESE 17 26 9 14 - - -
24/02:30pm - - - - - ESE 19 28 10 15 - - -
24/02:00pm - - - - - NE 11 19 6 10 - - -
24/01:30pm - - - - - E 13 19 7 10 - - -
24/01:00pm - - - - - ENE 11 17 6 9 - - -

Other Formats:

Comma delimited format used in spreadsheet applications
http://www.bom.gov.au/fwo/IDW60801/IDW60801.95620.axf

JavaScript Object Notation format (JSON) in row-major order
http://www.bom.gov.au/fwo/IDW60801/IDW60801.95620.json